createdAt,value
2017-08-12T00:02:11.887Z,22.73
2017-08-12T00:04:43.343Z,22.77
2017-08-12T00:07:15.252Z,22.76
2017-08-12T00:09:47.174Z,22.77
2017-08-12T00:12:19.044Z,22.74
2017-08-12T00:14:51.155Z,22.73
2017-08-12T00:17:23.453Z,22.75
2017-08-12T00:19:54.900Z,22.67
2017-08-12T00:22:28.497Z,22.74
2017-08-12T00:25:01.360Z,22.71
2017-08-12T00:27:33.533Z,22.69
2017-08-12T00:30:06.816Z,22.70
2017-08-12T00:32:38.809Z,22.69
2017-08-12T00:35:10.928Z,22.68
2017-08-12T00:45:11.509Z,22.34
2017-08-12T00:47:45.226Z,22.50
2017-08-12T00:51:37.818Z,22.51
2017-08-12T00:54:11.155Z,22.39
2017-08-12T00:56:43.955Z,22.53
2017-08-12T00:59:15.528Z,22.47
2017-08-12T01:01:51.509Z,22.63
2017-08-12T01:04:29.477Z,22.63
2017-08-12T01:07:01.682Z,22.57
2017-08-12T01:09:36.401Z,22.27
2017-08-12T01:12:08.269Z,22.63
2017-08-12T01:14:52.423Z,22.41
2017-08-12T01:17:24.466Z,22.52
2017-08-12T01:19:57.939Z,22.45
2017-08-12T01:22:36.085Z,22.58
2017-08-12T01:25:11.456Z,22.43
2017-08-12T01:27:43.463Z,22.51
2017-08-12T01:30:16.480Z,22.57
2017-08-12T01:32:48.473Z,22.42
2017-08-12T01:35:20.394Z,22.47
2017-08-12T01:37:53.721Z,22.53
2017-08-12T01:40:32.400Z,22.53
2017-08-12T01:43:05.586Z,22.53
2017-08-12T01:45:37.303Z,22.53
2017-08-12T01:48:09.962Z,22.51
2017-08-12T01:50:44.444Z,22.51
2017-08-12T01:53:18.027Z,22.35
2017-08-12T01:55:50.106Z,22.26
2017-08-12T01:58:21.878Z,22.50
2017-08-12T02:00:54.571Z,22.50
2017-08-12T02:03:30.363Z,22.50
2017-08-12T02:06:04.976Z,22.37
2017-08-12T02:08:39.457Z,22.38
2017-08-12T02:11:11.244Z,22.49
2017-08-12T02:13:42.555Z,22.47
2017-08-12T02:16:15.130Z,22.46
2017-08-12T02:18:46.956Z,22.49
2017-08-12T02:21:19.478Z,22.37
2017-08-12T02:23:52.777Z,22.51
2017-08-12T02:26:24.704Z,22.44
2017-08-12T02:28:56.970Z,22.51
2017-08-12T02:31:32.932Z,22.52
2017-08-12T02:34:05.262Z,22.49
2017-08-12T02:36:37.801Z,22.42
2017-08-12T02:39:12.482Z,22.46
2017-08-12T02:41:46.483Z,22.33
2017-08-12T02:44:19.249Z,22.43
2017-08-12T02:46:51.405Z,22.46
2017-08-12T02:49:22.971Z,22.43
2017-08-12T02:51:55.482Z,22.50
2017-08-12T02:54:32.700Z,22.48
2017-08-12T02:57:04.727Z,22.21
2017-08-12T02:59:38.943Z,22.24
2017-08-12T03:02:10.352Z,22.44
2017-08-12T03:04:43.127Z,22.44
2017-08-12T03:07:18.188Z,22.43
2017-08-12T03:09:49.680Z,22.45
2017-08-12T03:12:21.311Z,22.43
2017-08-12T03:14:53.643Z,22.19
2017-08-12T03:17:31.033Z,22.17
2017-08-12T03:20:03.374Z,22.17
2017-08-12T03:22:35.506Z,22.41
2017-08-12T03:25:09.083Z,22.40
2017-08-12T03:27:41.424Z,22.40
2017-08-12T03:30:14.214Z,22.41
2017-08-12T03:32:46.121Z,22.40
2017-08-12T03:35:18.510Z,22.39
2017-08-12T03:37:50.952Z,22.15
2017-08-12T03:40:23.651Z,22.36
2017-08-12T03:42:58.187Z,22.34
2017-08-12T03:45:38.174Z,22.34
2017-08-12T03:48:12.053Z,22.08
2017-08-12T03:50:45.046Z,22.15
2017-08-12T03:53:17.792Z,22.33
2017-08-12T03:55:50.043Z,22.31
2017-08-12T03:58:21.986Z,22.26
2017-08-12T04:00:54.012Z,22.33
2017-08-12T04:03:29.753Z,22.10
2017-08-12T04:06:00.983Z,22.26
2017-08-12T04:08:36.572Z,22.31
2017-08-12T04:11:08.321Z,22.31
2017-08-12T04:13:40.918Z,22.32
2017-08-12T04:16:13.588Z,22.32
2017-08-12T04:18:46.052Z,22.32
2017-08-12T04:21:18.692Z,22.26
2017-08-12T04:23:50.550Z,22.25
2017-08-12T04:26:22.801Z,22.32
2017-08-12T04:28:54.634Z,22.32
2017-08-12T04:31:33.671Z,21.86
2017-08-12T04:34:05.949Z,22.29
2017-08-12T04:36:38.461Z,22.15
2017-08-12T04:39:10.969Z,22.03
2017-08-12T04:41:44.932Z,22.26
2017-08-12T04:44:20.294Z,22.27
2017-08-12T04:46:51.896Z,22.21
2017-08-12T04:49:24.620Z,22.14
2017-08-12T04:51:56.730Z,22.17
2017-08-12T04:54:35.329Z,22.24
2017-08-12T04:57:08.585Z,22.25
2017-08-12T04:59:40.591Z,22.33
2017-08-12T05:02:13.349Z,22.17
2017-08-12T05:04:47.624Z,22.28
2017-08-12T05:07:19.536Z,22.57
2017-08-12T05:09:51.629Z,22.69
2017-08-12T05:12:31.410Z,22.49
2017-08-12T05:15:06.117Z,22.34
2017-08-12T05:17:38.759Z,22.20
2017-08-12T05:20:11.170Z,22.15
2017-08-12T05:22:45.787Z,22.13
2017-08-12T05:25:17.702Z,22.28
2017-08-12T05:27:49.666Z,22.22
2017-08-12T05:30:23.597Z,22.28
2017-08-12T05:32:56.691Z,22.19
2017-08-12T05:35:32.594Z,22.27
2017-08-12T05:38:11.324Z,22.19
2017-08-12T05:40:47.264Z,22.22
2017-08-12T05:46:11.548Z,22.24
2017-08-12T05:48:44.821Z,22.21
2017-08-12T05:54:01.395Z,21.89
2017-08-12T05:56:36.728Z,21.95
2017-08-12T05:59:09.821Z,22.21
2017-08-12T06:01:44.208Z,22.15
2017-08-12T06:04:16.079Z,22.20
2017-08-12T06:06:49.172Z,22.22
2017-08-12T06:09:20.407Z,22.17
2017-08-12T06:11:53.610Z,22.25
2017-08-12T06:14:29.458Z,22.06
2017-08-12T06:17:05.351Z,21.85
2017-08-12T06:19:37.689Z,22.22
2017-08-12T06:22:09.491Z,22.28
2017-08-12T06:24:40.810Z,22.32
2017-08-12T06:27:12.782Z,22.25
2017-08-12T06:29:44.386Z,22.36
2017-08-12T06:32:16.952Z,22.35
2017-08-12T06:34:48.803Z,22.34
2017-08-12T06:37:21.188Z,22.36
2017-08-12T06:39:52.913Z,22.37
2017-08-12T06:42:24.884Z,22.40
2017-08-12T06:44:57.026Z,22.40
2017-08-12T06:47:30.772Z,22.42
2017-08-12T06:50:02.492Z,22.42
2017-08-12T06:52:33.946Z,22.44
2017-08-12T06:55:14.918Z,21.89
2017-08-12T06:57:46.704Z,22.43
2017-08-12T07:00:18.275Z,22.45
2017-08-12T07:02:50.240Z,22.36
2017-08-12T07:05:23.176Z,22.43
2017-08-12T07:07:54.905Z,22.41
2017-08-12T07:10:29.526Z,22.42
2017-08-12T07:13:01.070Z,22.41
2017-08-12T07:15:34.537Z,21.99
2017-08-12T07:18:06.849Z,22.43
2017-08-12T07:20:38.267Z,22.41
2017-08-12T07:23:10.009Z,22.39
2017-08-12T07:25:41.942Z,22.39
2017-08-12T07:28:14.722Z,22.44
2017-08-12T07:30:48.715Z,22.48
2017-08-12T07:33:22.931Z,22.46
2017-08-12T07:35:57.507Z,22.46
2017-08-12T07:38:30.423Z,22.37
2017-08-12T07:41:03.144Z,22.43
2017-08-12T07:43:34.510Z,22.44
2017-08-12T07:46:06.992Z,22.49
2017-08-12T07:48:39.138Z,22.46
2017-08-12T07:51:12.391Z,22.54
2017-08-12T07:53:44.562Z,22.40
2017-08-12T07:56:16.125Z,22.58
2017-08-12T07:58:49.192Z,22.54
2017-08-12T08:01:22.324Z,22.54
2017-08-12T08:03:55.366Z,22.61
2017-08-12T08:06:29.148Z,22.60
2017-08-12T08:09:00.994Z,22.62
2017-08-12T08:11:32.802Z,22.63
2017-08-12T08:14:04.440Z,22.65
2017-08-12T08:16:39.244Z,22.48
2017-08-12T08:19:18.316Z,22.26
2017-08-12T08:21:51.163Z,22.37
2017-08-12T08:24:23.848Z,22.53
2017-08-12T08:26:56.805Z,22.51
2017-08-12T08:29:30.774Z,22.47
2017-08-12T08:32:02.267Z,22.45
2017-08-12T08:34:34.957Z,22.18
2017-08-12T08:37:06.546Z,22.39
2017-08-12T08:39:39.289Z,22.42
2017-08-12T08:42:10.744Z,22.30
2017-08-12T08:44:44.170Z,22.41
2017-08-12T08:47:17.342Z,22.36
2017-08-12T08:49:50.639Z,22.46
2017-08-12T08:52:34.315Z,22.31
2017-08-12T08:55:07.663Z,22.70
2017-08-12T08:57:39.714Z,22.78
2017-08-12T09:00:11.057Z,22.85
2017-08-12T09:02:48.069Z,22.91
2017-08-12T09:05:19.842Z,22.98
2017-08-12T09:07:54.477Z,22.95
2017-08-12T09:10:28.560Z,22.92
2017-08-12T09:21:43.415Z,22.37
2017-08-12T09:38:46.376Z,22.48
2017-08-12T09:57:23.496Z,22.56
2017-08-12T10:12:50.919Z,22.31
2017-08-12T10:15:25.222Z,22.48
2017-08-12T10:17:59.342Z,22.46
2017-08-12T10:20:33.381Z,22.37
2017-08-12T10:23:07.512Z,22.22
2017-08-12T10:25:39.607Z,22.45
2017-08-12T10:28:12.228Z,22.44
2017-08-12T10:30:44.038Z,22.42
2017-08-12T10:33:16.549Z,22.42
2017-08-12T10:35:48.629Z,22.42
2017-08-12T10:38:21.017Z,22.40
2017-08-12T10:40:53.128Z,22.38
2017-08-12T10:43:24.920Z,22.40
2017-08-12T10:45:57.734Z,22.34
2017-08-12T10:48:32.305Z,22.35
2017-08-12T10:51:04.802Z,22.41
2017-08-12T10:53:36.418Z,22.33
2017-08-12T10:56:11.115Z,22.38
2017-08-12T10:58:42.922Z,22.08
2017-08-12T11:01:14.310Z,22.33
2017-08-12T11:03:46.569Z,22.31
2017-08-12T11:06:18.955Z,22.31
2017-08-12T11:08:50.667Z,22.28
2017-08-12T11:11:22.206Z,22.35
2017-08-12T11:13:53.766Z,22.19
2017-08-12T11:16:27.596Z,22.26
2017-08-12T11:23:44.792Z,22.18
2017-08-12T11:27:28.140Z,22.18
2017-08-12T11:30:54.057Z,22.32
2017-08-12T11:33:51.436Z,22.42
2017-08-12T11:38:09.722Z,22.53
2017-08-12T11:49:01.426Z,22.56
2017-08-12T11:51:32.930Z,22.90
2017-08-12T11:54:22.633Z,22.96
2017-08-12T11:57:04.699Z,22.98
2017-08-12T11:59:36.552Z,23.07
2017-08-12T12:02:08.367Z,23.18
2017-08-12T12:04:39.838Z,23.20
2017-08-12T12:07:11.207Z,23.14
2017-08-12T12:09:42.501Z,23.20
2017-08-12T12:12:14.132Z,23.16
2017-08-12T12:14:47.019Z,23.25
2017-08-12T12:17:21.425Z,23.27
2017-08-12T12:25:38.940Z,23.07
2017-08-12T12:56:16.116Z,23.35
2017-08-12T13:06:06.299Z,23.61
2017-08-12T13:08:43.576Z,23.51
2017-08-12T14:44:11.589Z,23.46
2017-08-12T15:00:01.210Z,23.47
2017-08-12T15:37:54.337Z,23.42
2017-08-12T16:47:15.186Z,23.02
2017-08-12T16:53:46.107Z,23.26
2017-08-12T17:01:49.398Z,23.24
2017-08-12T17:11:02.901Z,23.03
2017-08-12T17:54:13.729Z,23.01
2017-08-12T17:56:45.884Z,22.94
2017-08-12T18:05:55.291Z,22.99
2017-08-12T18:08:30.558Z,22.91
2017-08-12T18:11:22.976Z,22.84
2017-08-12T18:13:54.518Z,22.98
2017-08-12T18:16:29.402Z,22.88
2017-08-12T18:38:57.025Z,22.89
2017-08-12T18:41:38.099Z,22.89
2017-08-12T18:44:20.575Z,22.87
2017-08-12T18:53:15.183Z,22.74
2017-08-12T18:55:47.665Z,22.76
2017-08-12T19:22:13.585Z,22.60
2017-08-12T19:25:07.462Z,22.63
2017-08-12T19:38:13.739Z,22.55
2017-08-12T19:41:31.882Z,22.46
2017-08-12T19:44:05.852Z,22.49
2017-08-12T19:46:38.655Z,22.49
2017-08-12T19:49:12.379Z,22.39
2017-08-12T19:51:46.893Z,22.34
2017-08-12T19:54:19.788Z,22.46
2017-08-12T19:56:51.979Z,22.45
2017-08-12T19:59:24.848Z,22.42
2017-08-12T20:01:59.639Z,22.41
2017-08-12T20:04:36.180Z,22.41
2017-08-12T20:07:09.373Z,22.44
2017-08-12T20:09:40.998Z,22.45
2017-08-12T20:12:13.542Z,22.46
2017-08-12T20:14:45.159Z,22.40
2017-08-12T20:17:21.523Z,22.45
2017-08-12T20:20:01.438Z,22.41
2017-08-12T20:22:34.223Z,22.20
2017-08-12T20:25:10.021Z,22.28
2017-08-12T20:27:42.262Z,22.35
2017-08-12T20:30:17.074Z,22.34
2017-08-12T20:32:49.100Z,22.34
2017-08-12T20:35:24.698Z,22.28
2017-08-12T20:37:58.768Z,22.27
2017-08-12T20:40:31.495Z,22.32
2017-08-12T20:43:05.003Z,22.34
2017-08-12T20:45:38.861Z,22.24
2017-08-12T20:48:11.514Z,22.36
2017-08-12T20:50:44.343Z,22.36
2017-08-12T20:53:16.751Z,22.35
2017-08-12T20:55:58.090Z,22.38
2017-08-12T20:58:33.977Z,22.34
2017-08-12T21:01:10.711Z,22.41
2017-08-12T21:03:44.208Z,22.34
2017-08-12T21:06:18.226Z,22.43
2017-08-12T21:08:53.221Z,22.44
2017-08-12T21:11:25.842Z,22.44
2017-08-12T21:13:58.854Z,22.44
2017-08-12T21:16:32.941Z,22.43
2017-08-12T21:19:04.693Z,22.44
2017-08-12T21:21:38.805Z,22.47
2017-08-12T21:24:10.995Z,22.42
2017-08-12T21:26:45.695Z,22.48
2017-08-12T21:29:19.668Z,22.49
2017-08-12T21:31:52.639Z,22.49
2017-08-12T21:37:06.374Z,22.40
2017-08-12T21:39:38.203Z,22.47
2017-08-12T21:42:10.025Z,22.46
2017-08-12T21:44:43.809Z,22.47
2017-08-12T21:47:16.645Z,22.45
2017-08-12T21:49:50.088Z,22.36
2017-08-12T21:52:22.176Z,22.36
2017-08-12T21:54:55.121Z,22.42
2017-08-12T21:57:29.100Z,22.40
2017-08-12T22:00:01.119Z,22.39
2017-08-12T22:02:33.421Z,22.39
2017-08-12T22:05:07.514Z,22.28
2017-08-12T22:07:40.660Z,22.41
2017-08-12T22:10:17.528Z,22.42
2017-08-12T22:12:49.706Z,22.36
2017-08-12T22:15:21.618Z,22.37
2017-08-12T22:17:53.633Z,22.44
2017-08-12T22:20:30.432Z,22.39
2017-08-12T22:23:03.310Z,22.16
2017-08-12T22:25:34.867Z,22.44
2017-08-12T22:28:06.715Z,22.36
2017-08-12T22:30:39.566Z,22.40
2017-08-12T22:33:11.369Z,22.39
2017-08-12T22:35:43.630Z,22.33
2017-08-12T22:38:18.047Z,22.39
2017-08-12T22:40:51.301Z,22.37
2017-08-12T22:43:22.820Z,22.36
2017-08-12T22:45:54.647Z,22.35
2017-08-12T22:48:30.375Z,22.34
2017-08-12T22:51:03.998Z,21.84
2017-08-12T22:53:36.085Z,22.32
2017-08-12T22:59:28.213Z,22.31
2017-08-12T23:02:00.893Z,22.29
2017-08-12T23:04:34.575Z,21.82
2017-08-12T23:07:06.984Z,22.29
2017-08-12T23:09:39.002Z,22.25
2017-08-12T23:12:10.722Z,22.29
2017-08-12T23:14:42.192Z,22.30
2017-08-12T23:17:14.625Z,22.29
2017-08-12T23:19:46.247Z,22.27
2017-08-12T23:22:17.625Z,22.34
2017-08-12T23:24:50.592Z,22.28
2017-08-12T23:27:21.989Z,22.34
2017-08-12T23:29:54.646Z,22.33
2017-08-12T23:32:29.425Z,22.34
2017-08-12T23:35:04.699Z,22.36
2017-08-12T23:37:36.585Z,22.35
2017-08-12T23:40:08.961Z,22.35
2017-08-12T23:42:40.521Z,22.36
2017-08-12T23:45:11.869Z,22.35
2017-08-12T23:47:43.340Z,22.34
2017-08-12T23:50:14.969Z,22.30
2017-08-12T23:52:46.458Z,22.33
2017-08-12T23:55:17.745Z,22.33
2017-08-12T23:57:49.156Z,22.32
